Jeudi 02 Avril 2020
05H11 UTC - 07H11 CET

Tableau Semaine

 /   
Donnes mto - Semaine 30/03/20 - 05/04/20 (S 14) - Petite France - Strasbourg - Alsace - France     153 m niveau au-dessus de la mer
Donnes mto: Semaine 30/03/20 - 05/04/20 (S 14)
Date Horaire Temp. E. Hum. E. P.atmo. Pluie Vent Direction P. de rose Temp au vent Rafales
30/03/2020 00:00 3,0 C 86 % 1024 hPa 0,0 mm 6 km/h (2 Bft) N-NE 1 C 1,6 C 12,0 km/h (2 Bft)
30/03/2020 01:00 3,1 C 81 % 1024 hPa 0,0 mm 4 km/h (1 Bft) N-NE 0 C 2,2 C 6,3 km/h (2 Bft)
30/03/2020 02:00 3,1 C 79 % 1024 hPa 0,0 mm 5 km/h (1 Bft) N-NE -0 C 1,7 C 7,4 km/h (2 Bft)
30/03/2020 03:00 3,1 C 68 % 1024 hPa 0,0 mm 10 km/h (2 Bft) N-NE -2 C -0,8 C 19,4 km/h (3 Bft)
30/03/2020 04:00 2,7 C 66 % 1024 hPa 0,0 mm 8 km/h (2 Bft) N-NE -3 C 0,5 C 15,2 km/h (3 Bft)
30/03/2020 05:00 2,3 C 66 % 1024 hPa 0,0 mm 10 km/h (2 Bft) N-NE -3 C -1,3 C 18,4 km/h (3 Bft)
30/03/2020 06:00 2,1 C 65 % 1024 hPa 0,0 mm 9 km/h (2 Bft) N-NE -4 C -0,8 C 13,9 km/h (3 Bft)
30/03/2020 07:00 1,7 C 64 % 1025 hPa 0,0 mm 10 km/h (2 Bft) NE -4 C -1,6 C 20,2 km/h (4 Bft)
30/03/2020 08:00 1,7 C 64 % 1025 hPa 0,0 mm 6 km/h (2 Bft) N-NE -4 C 0,3 C 11,1 km/h (2 Bft)
30/03/2020 09:00 2,3 C 60 % 1026 hPa 0,0 mm 9 km/h (2 Bft) NE -5 C -0,8 C 17,8 km/h (3 Bft)
30/03/2020 10:00 3,1 C 52 % 1026 hPa 0,0 mm 13 km/h (3 Bft) N-NE -6 C -1,8 C 23,4 km/h (4 Bft)
30/03/2020 11:00 4,5 C 49 % 1025 hPa 0,0 mm 6 km/h (2 Bft) NE -5 C 2,9 C 9,5 km/h (2 Bft)
30/03/2020 12:00 5,5 C 46 % 1025 hPa 0,0 mm 5 km/h (1 Bft) NE -5 C 4,2 C 7,5 km/h (2 Bft)
30/03/2020 13:00 6,1 C 42 % 1024 hPa 0,0 mm 10 km/h (2 Bft) N -6 C 2,8 C 16,9 km/h (3 Bft)
30/03/2020 14:00 6,6 C 37 % 1024 hPa 0,0 mm 10 km/h (2 Bft) NE -7 C 3,4 C 18,2 km/h (3 Bft)
30/03/2020 15:00 7,3 C 32 % 1024 hPa 0,0 mm 12 km/h (2 Bft) NE -8 C 3,7 C 19,5 km/h (3 Bft)
30/03/2020 16:00 7,8 C 30 % 1023 hPa 0,0 mm 7 km/h (2 Bft) O-SO -9 C 6,2 C 12,2 km/h (2 Bft)
30/03/2020 17:00 8,1 C 30 % 1022 hPa 0,0 mm 6 km/h (2 Bft) O-SO -8 C 6,8 C 11,2 km/h (2 Bft)
30/03/2020 18:00 8,0 C 30 % 1022 hPa 0,0 mm 6 km/h (2 Bft) O-SO -9 C 6,7 C 9,8 km/h (2 Bft)
30/03/2020 19:00 7,2 C 31 % 1022 hPa 0,0 mm 3 km/h (1 Bft) O-SO -9 C 6,8 C 5,0 km/h (1 Bft)
30/03/2020 20:00 6,0 C 34 % 1023 hPa 0,0 mm 1 km/h (0 Bft) N-NE -8 C 6,0 C 1,1 km/h (0 Bft)
30/03/2020 21:00 5,1 C 38 % 1024 hPa 0,0 mm 0 km/h (0 Bft) NE -8 C 5,1 C 0,4 km/h (0 Bft)
30/03/2020 22:00 4,4 C 41 % 1024 hPa 0,0 mm 0 km/h (0 Bft) N -8 C 4,4 C 0,0 km/h (0 Bft)
30/03/2020 23:00 3,7 C 44 % 1024 hPa 0,0 mm 0 km/h (0 Bft) N -7 C 3,7 C 0,0 km/h (0 Bft)
31/03/2020 00:00 2,9 C 47 % 1024 hPa 0,0 mm 0 km/h (0 Bft) N -7 C 2,9 C 0,0 km/h (0 Bft)
31/03/2020 01:00 2,1 C 50 % 1023 hPa 0,0 mm 0 km/h (0 Bft) N -7 C 2,1 C 0,0 km/h (0 Bft)
31/03/2020 02:00 1,5 C 53 % 1024 hPa 0,0 mm 0 km/h (0 Bft) N -7 C 1,5 C 0,0 km/h (0 Bft)
31/03/2020 03:00 1,1 C 55 % 1023 hPa 0,0 mm 0 km/h (0 Bft) N -7 C 1,1 C 0,0 km/h (0 Bft)
31/03/2020 04:00 0,9 C 57 % 1023 hPa 0,0 mm 0 km/h (0 Bft) N -7 C 0,9 C 0,0 km/h (0 Bft)
31/03/2020 05:00 0,6 C 61 % 1023 hPa 0,0 mm 0 km/h (0 Bft) N -6 C 0,6 C 0,0 km/h (0 Bft)
31/03/2020 06:00 0,1 C 64 % 1023 hPa 0,0 mm 0 km/h (0 Bft) N -6 C 0,1 C 0,0 km/h (0 Bft)
31/03/2020 07:00 -0,2 C 67 % 1024 hPa 0,0 mm 0 km/h (0 Bft) N -6 C -0,2 C 0,0 km/h (0 Bft)
31/03/2020 08:00 1,6 C 63 % 1024 hPa 0,0 mm 2 km/h (1 Bft) NE -5 C 1,1 C 1,8 km/h (1 Bft)
31/03/2020 09:00 3,8 C 54 % 1024 hPa 0,0 mm 3 km/h (1 Bft) NE -5 C 3,1 C 4,4 km/h (1 Bft)
31/03/2020 10:00 6,2 C 47 % 1025 hPa 0,0 mm 2 km/h (1 Bft) N-NE -4 C 6,0 C 2,6 km/h (1 Bft)
31/03/2020 11:00 8,4 C 45 % 1024 hPa 0,0 mm 5 km/h (1 Bft) N-NE -3 C 7,6 C 9,0 km/h (2 Bft)
31/03/2020 12:00 9,3 C 46 % 1024 hPa 0,0 mm 4 km/h (1 Bft) N-NE -2 C 8,4 C 5,5 km/h (1 Bft)
31/03/2020 13:00 10,3 C 42 % 1024 hPa 0,0 mm 7 km/h (2 Bft) N-NE -2 C 9,0 C 10,9 km/h (2 Bft)
31/03/2020 14:00 9,9 C 42 % 1024 hPa 0,0 mm 7 km/h (2 Bft) E-NE -2 C 8,7 C 11,8 km/h (2 Bft)
31/03/2020 15:00 10,1 C 39 % 1024 hPa 0,0 mm 9 km/h (2 Bft) N-NE -3 C 7,6 C 15,4 km/h (3 Bft)
31/03/2020 16:00 9,8 C 37 % 1023 hPa 0,0 mm 9 km/h (2 Bft) O-SO -4 C 7,9 C 16,4 km/h (3 Bft)
31/03/2020 17:00 9,9 C 37 % 1023 hPa 0,0 mm 5 km/h (1 Bft) O-SO -4 C 9,0 C 12,0 km/h (2 Bft)
31/03/2020 18:00 9,4 C 36 % 1023 hPa 0,0 mm 8 km/h (2 Bft) O-SO -5 C 7,6 C 13,0 km/h (3 Bft)
31/03/2020 19:00 8,5 C 37 % 1023 hPa 0,0 mm 6 km/h (1 Bft) O-SO -5 C 7,4 C 8,7 km/h (2 Bft)
31/03/2020 20:00 7,3 C 40 % 1024 hPa 0,0 mm 3 km/h (1 Bft) N-NE -5 C 6,6 C 3,5 km/h (1 Bft)
31/03/2020 21:00 6,5 C 44 % 1024 hPa 0,0 mm 1 km/h (0 Bft) NE -5 C 6,4 C 0,7 km/h (0 Bft)
31/03/2020 22:00 5,6 C 48 % 1023 hPa 0,0 mm 0 km/h (0 Bft) N -5 C 5,6 C 0,0 km/h (0 Bft)
31/03/2020 23:00 4,6 C 50 % 1023 hPa 0,0 mm 0 km/h (0 Bft) N -5 C 4,6 C 0,0 km/h (0 Bft)
01/04/2020 00:00 3,7 C 54 % 1023 hPa 0,0 mm 0 km/h (0 Bft) N-NE -5 C 3,7 C 0,3 km/h (0 Bft)
01/04/2020 01:00 2,8 C 57 % 1022 hPa 0,0 mm 0 km/h (0 Bft) N -5 C 2,8 C 0,0 km/h (0 Bft)
01/04/2020 02:00 2,0 C 60 % 1022 hPa 0,0 mm 1 km/h (0 Bft) N-NE -5 C 1,9 C 0,8 km/h (0 Bft)
01/04/2020 03:00 1,4 C 62 % 1022 hPa 0,0 mm 1 km/h (0 Bft) NE -5 C 1,4 C 0,9 km/h (0 Bft)
01/04/2020 04:00 0,8 C 64 % 1021 hPa 0,0 mm 2 km/h (1 Bft) N-NE -5 C 0,6 C 1,9 km/h (1 Bft)
01/04/2020 05:00 0,3 C 65 % 1021 hPa 0,0 mm 1 km/h (0 Bft) NE -5 C 0,3 C 0,8 km/h (0 Bft)
01/04/2020 06:00 -0,3 C 66 % 1021 hPa 0,0 mm 4 km/h (1 Bft) N-NE -6 C -0,6 C 4,2 km/h (1 Bft)
01/04/2020 07:00 -0,6 C 66 % 1021 hPa 0,0 mm 0 km/h (0 Bft) N-NE -6 C -0,6 C 0,2 km/h (0 Bft)
01/04/2020 08:00 0,9 C 62 % 1021 hPa 0,0 mm 1 km/h (0 Bft) N-NE -6 C 0,9 C 0,8 km/h (0 Bft)
01/04/2020 09:00 3,6 C 56 % 1021 hPa 0,0 mm 0 km/h (0 Bft) N -4 C 3,6 C 0,0 km/h (0 Bft)
01/04/2020 10:00 6,7 C 49 % 1020 hPa 0,0 mm 0 km/h (0 Bft) N -3 C 6,7 C 0,0 km/h (0 Bft)
01/04/2020 11:00 8,6 C 45 % 1020 hPa 0,0 mm 0 km/h (0 Bft) N-NE -3 C 8,6 C 0,0 km/h (0 Bft)
01/04/2020 12:00 10,4 C 40 % 1019 hPa 0,0 mm 1 km/h (0 Bft) NE -3 C 10,4 C 1,6 km/h (1 Bft)
01/04/2020 13:00 11,5 C 37 % 1018 hPa 0,0 mm 0 km/h (0 Bft) N-NE -3 C 11,5 C 0,4 km/h (0 Bft)
01/04/2020 14:00 12,2 C 37 % 1017 hPa 0,0 mm 1 km/h (0 Bft) N-NE -2 C 12,2 C 0,6 km/h (0 Bft)
01/04/2020 15:00 12,9 C 36 % 1016 hPa 0,0 mm 1 km/h (0 Bft) N-NE -2 C 12,9 C 0,6 km/h (0 Bft)
01/04/2020 16:00 13,0 C 36 % 1016 hPa 0,0 mm 0 km/h (0 Bft) N -2 C 13,0 C 0,0 km/h (0 Bft)
01/04/2020 17:00 13,5 C 34 % 1015 hPa 0,0 mm 2 km/h (1 Bft) O-SO -2 C 13,4 C 2,0 km/h (1 Bft)
01/04/2020 18:00 13,0 C 33 % 1015 hPa 0,0 mm 0 km/h (0 Bft) O-SO -3 C 13,0 C 0,2 km/h (0 Bft)
01/04/2020 19:00 11,7 C 34 % 1014 hPa 0,0 mm 1 km/h (1 Bft) O-SO -4 C 11,7 C 1,2 km/h (1 Bft)
01/04/2020 20:00 9,7 C 37 % 1014 hPa 0,0 mm 1 km/h (0 Bft) NE -4 C 9,7 C 0,6 km/h (0 Bft)
01/04/2020 21:00 8,6 C 39 % 1015 hPa 0,0 mm 0 km/h (0 Bft) N -4 C 8,6 C 0,0 km/h (0 Bft)
01/04/2020 22:00 7,6 C 41 % 1014 hPa 0,0 mm 0 km/h (0 Bft) N -5 C 7,6 C 0,0 km/h (0 Bft)
01/04/2020 23:00 6,5 C 43 % 1014 hPa 0,0 mm 0 km/h (0 Bft) N -5 C 6,5 C 0,0 km/h (0 Bft)
02/04/2020 00:00 5,8 C 45 % 1014 hPa 0,0 mm 0 km/h (0 Bft) N -5 C 5,8 C 0,0 km/h (0 Bft)
Min-Date _ 01/04/20 30/03/20 01/04/20 - 30/03/20 - 30/03/20 30/03/20 30/03/20
_ Min-Heure 07:15 16:25 19:00 - 00:25 - 19:05 10:10 00:25
Minimum _ -0,6 C 29 % 1014 hPa - 0 km/h (0 Bft) - -9 C -7,2 C 0,0 km/h (0 Bft)
Max-Date _ 01/04/20 30/03/20 30/03/20 30/03/20 30/03/20 - 30/03/20 01/04/20 30/03/20
_ Max-Heure 17:25 00:00 09:30 00:00 10:10 - 00:10 17:25 03:35
Maximum _ 14,1 C 89 % 1026 hPa 0,0 mm 24 km/h
N-NE (4 Bft)
- 1 C 14,1 C 41,0 km/h
N-NE (6 Bft)
Moyenne _ 5,6 C 49 % 1022 hPa #0,0 mm 3 km/h (1 Bft) N-NE -5 C 4,7 C 5,6 km/h (1 Bft)

Haut de la page